< < Back
Terminal Aerodrome Forecast


Current Version              Previous Versions:   1  2  3  4  5  6  7  8  9  

Terminal Aerodrome Forecast

128
FTUS42 KFFC 300214 AAA
TAFCSG
TAF AMD
KCSG 300214Z 3002/3024 07004KT P6SM -RA BKN025 BKN080
     FM300300 08004KT P6SM VCSH FEW030 BKN080
     FM300900 10004KT P6SM -SHRA SCT006 OVC025
      TEMPO 3010/3014 5SM -RA BR BKN008
     FM301400 12006KT P6SM -RA OVC015
     FM301600 12007KT P6SM BKN025 BKN120
     FM301900 14008KT P6SM VCSH BKN035 PROB30 3019/3022 5SM -TSRA
      BKN025CB=

Latest METAR

955
SAUS70 KWBC 300300
MTRCSG
METAR KCSG 300251Z AUTO 04005KT 8SM -RA BKN025 OVC030 22/21 A3010 RMK
AO2 SLP188 P0006 60020 T02170206 50003


USA.gov is the U.S. government's official web portal to all federal, state and local government web resources and services.